Time;durP1;ratioP1;P1;durP2;ratioP2;P2;SDS_P1;SDS_P2;PMS_P1;PMS_P2;Temp;Humidity;BMP_temperature;BMP_pressure;BME280_temperature;BME280_humidity;BME280_pressure;Samples;Min_cycle;Max_cycle;Signal;HPM_P1;HPM_P2
2021/11/24 00:00:54;;;;;;;10.38;5.15;;;1.60;88.60;;;;;;6176952;28;20054;-79
2021/11/24 00:03:56;;;;;;;10.70;5.32;;;1.50;88.80;;;;;;6177618;28;20047;-81
2021/11/24 00:06:58;;;;;;;14.88;4.00;;;1.50;88.90;;;;;;6176962;28;20181;-81
2021/11/24 00:09:59;;;;;;;7.32;2.90;;;1.50;88.80;;;;;;6177602;28;20051;-81
2021/11/24 00:13:04;;;;;;;4.82;2.90;;;1.50;88.90;;;;;;6177043;28;20185;-80
2021/11/24 00:16:07;;;;;;;6.15;3.08;;;1.50;89.00;;;;;;6176892;28;20050;-81
2021/11/24 00:19:09;;;;;;;10.80;4.07;;;1.50;89.20;;;;;;6178768;28;20054;-81
2021/11/24 00:22:10;;;;;;;8.63;4.95;;;1.50;89.20;;;;;;6179384;28;20047;-82
2021/11/24 00:25:12;;;;;;;7.75;4.05;;;1.50;89.10;;;;;;6183473;28;20120;-81
2021/11/24 00:28:15;;;;;;;8.65;3.90;;;1.50;89.10;;;;;;6176199;28;20537;-81
2021/11/24 00:31:17;;;;;;;11.45;3.58;;;1.40;89.10;;;;;;6176874;28;20042;-82
2021/11/24 00:34:19;;;;;;;13.70;4.25;;;1.40;89.20;;;;;;6176328;28;20058;-82
2021/11/24 00:37:21;;;;;;;8.80;4.93;;;1.40;89.00;;;;;;6176063;28;20051;-82
2021/11/24 00:40:23;;;;;;;9.73;4.75;;;1.50;89.10;;;;;;6175073;28;20196;-80
2021/11/24 00:43:27;;;;;;;16.15;4.60;;;1.50;88.90;;;;;;6175732;28;20182;-81
2021/11/24 00:46:28;;;;;;;10.32;4.80;;;1.50;88.80;;;;;;6176516;28;20085;-80
2021/11/24 00:49:30;;;;;;;9.30;4.97;;;1.50;88.60;;;;;;6175399;28;20094;-82
2021/11/24 00:52:32;;;;;;;9.18;4.63;;;1.50;88.40;;;;;;6176007;28;20178;-82
2021/11/24 00:55:34;;;;;;;9.93;4.90;;;1.40;88.30;;;;;;6175833;28;20050;-82
2021/11/24 00:58:38;;;;;;;11.27;5.50;;;1.40;88.50;;;;;;6176159;28;20514;-82
2021/11/24 01:01:40;;;;;;;8.07;5.28;;;1.40;88.30;;;;;;6175149;28;20504;-81
2021/11/24 01:04:42;;;;;;;9.93;5.03;;;1.40;88.20;;;;;;6175317;28;20504;-81
2021/11/24 01:07:43;;;;;;;13.48;4.85;;;1.30;88.00;;;;;;6175435;28;20051;-79
2021/11/24 01:10:46;;;;;;;8.40;4.55;;;1.30;88.30;;;;;;6175536;28;20135;-81
2021/11/24 01:13:50;;;;;;;12.02;5.88;;;1.30;88.30;;;;;;6175180;28;20043;-81
2021/11/24 01:16:52;;;;;;;10.18;5.63;;;1.30;88.30;;;;;;6174784;28;20129;-81
2021/11/24 01:19:53;;;;;;;9.95;4.80;;;1.20;88.40;;;;;;6174728;28;20129;-80
2021/11/24 01:22:55;;;;;;;8.55;4.95;;;1.20;88.30;;;;;;6174579;28;20112;-80
2021/11/24 01:25:57;;;;;;;9.30;4.95;;;1.20;88.40;;;;;;6172801;28;20401;-79
2021/11/24 01:29:00;;;;;;;12.18;5.28;;;1.10;88.10;;;;;;6179841;28;20075;-82
2021/11/24 01:32:02;;;;;;;13.27;5.88;;;1.10;88.00;;;;;;6179145;28;20527;-80
2021/11/24 01:35:05;;;;;;;13.00;5.75;;;1.10;88.40;;;;;;6179924;28;20063;-81
2021/11/24 01:38:07;;;;;;;8.65;4.93;;;1.10;88.30;;;;;;6179795;28;20054;-79
2021/11/24 01:41:09;;;;;;;10.32;5.30;;;1.00;88.20;;;;;;6179600;28;20050;-81
2021/11/24 01:44:21;;;;;;;11.10;5.90;;;1.00;88.40;;;;;;6180146;28;20125;-81
2021/11/24 01:47:23;;;;;;;12.38;6.25;;;1.00;88.30;;;;;;6162597;28;20043;-80
2021/11/24 01:50:25;;;;;;;10.55;5.47;;;1.00;88.60;;;;;;6156471;28;20102;-82
2021/11/24 01:53:27;;;;;;;10.88;6.18;;;1.00;88.50;;;;;;6154215;28;20057;-81
2021/11/24 01:56:29;;;;;;;14.05;6.35;;;1.00;88.80;;;;;;6155709;28;20062;-82
2021/11/24 01:59:32;;;;;;;10.50;5.13;;;1.00;88.90;;;;;;6158669;28;20053;-83
2021/11/24 02:02:34;;;;;;;14.20;6.65;;;0.90;88.90;;;;;;6157852;28;20541;-82
2021/11/24 02:05:35;;;;;;;11.50;5.65;;;0.90;89.10;;;;;;6157107;28;20506;-83
2021/11/24 02:08:37;;;;;;;12.50;5.88;;;0.90;88.80;;;;;;6156357;28;20125;-83
2021/11/24 02:11:42;;;;;;;13.63;5.68;;;0.90;88.80;;;;;;6157173;28;20517;-83
2021/11/24 02:14:46;;;;;;;11.57;6.15;;;0.80;88.70;;;;;;6157727;28;20059;-83
2021/11/24 02:17:48;;;;;;;9.88;6.18;;;0.80;88.90;;;;;;6156386;28;20498;-81
2021/11/24 02:20:51;;;;;;;15.68;5.85;;;0.80;88.80;;;;;;6156197;28;20057;-82
2021/11/24 02:23:53;;;;;;;9.95;5.30;;;0.80;89.10;;;;;;6156721;28;20080;-81
2021/11/24 02:26:55;;;;;;;12.75;5.40;;;0.70;89.00;;;;;;6162202;28;20075;-81
2021/11/24 02:29:57;;;;;;;17.75;6.35;;;0.70;89.50;;;;;;6180534;28;20284;-80
2021/11/24 02:32:59;;;;;;;13.10;6.82;;;0.70;89.00;;;;;;6180291;28;20047;-82
2021/11/24 02:36:02;;;;;;;15.13;6.47;;;0.70;89.40;;;;;;6180528;28;20189;-80
2021/11/24 02:39:04;;;;;;;10.13;5.88;;;0.70;89.30;;;;;;6177546;28;20138;-80
2021/11/24 02:42:07;;;;;;;10.90;5.65;;;0.70;89.90;;;;;;6179417;28;20065;-81
2021/11/24 02:45:10;;;;;;;11.10;6.55;;;0.70;90.10;;;;;;6178186;28;20046;-81
2021/11/24 02:48:12;;;;;;;10.77;6.38;;;0.70;90.00;;;;;;6179049;28;20566;-80
2021/11/24 02:51:15;;;;;;;10.38;5.88;;;0.70;89.90;;;;;;6178383;28;20046;-81
2021/11/24 02:54:17;;;;;;;10.80;5.28;;;0.70;89.90;;;;;;6178896;28;20050;-81
2021/11/24 02:57:19;;;;;;;13.85;6.50;;;0.70;90.20;;;;;;6178558;28;20057;-81
2021/11/24 03:00:24;;;;;;;15.52;6.97;;;0.80;90.40;;;;;;6177863;28;20089;-82
2021/11/24 03:03:26;;;;;;;13.57;7.30;;;0.80;90.20;;;;;;6178213;28;20740;-81
2021/11/24 03:06:29;;;;;;;11.65;6.70;;;0.80;90.20;;;;;;6218037;23;20070;-82
2021/11/24 03:09:31;;;;;;;13.45;6.80;;;0.90;90.30;;;;;;6222983;28;20046;-81
2021/11/24 03:12:34;;;;;;;14.27;6.25;;;0.80;90.30;;;;;;6212587;28;20468;-80
2021/11/24 03:15:36;;;;;;;15.50;6.72;;;0.90;90.50;;;;;;6208696;28;20500;-84
2021/11/24 03:18:37;;;;;;;16.60;8.13;;;0.90;90.50;;;;;;6208191;28;20531;-82
2021/11/24 03:21:41;;;;;;;9.63;5.50;;;0.80;90.50;;;;;;6210063;28;20050;-83
2021/11/24 03:24:43;;;;;;;11.45;4.25;;;0.90;90.60;;;;;;6209352;28;20070;-83
2021/11/24 03:27:45;;;;;;;11.82;5.38;;;0.80;90.50;;;;;;6205458;28;20050;-84
2021/11/24 03:30:47;;;;;;;12.85;6.07;;;0.80;90.50;;;;;;6184015;28;20110;-84
2021/11/24 03:33:48;;;;;;;9.05;5.38;;;0.80;90.60;;;;;;6185008;28;20051;-83
2021/11/24 03:36:52;;;;;;;10.77;5.65;;;0.80;90.60;;;;;;6185890;28;20114;-83
2021/11/24 03:39:54;;;;;;;9.98;6.70;;;0.80;90.70;;;;;;6186625;28;20628;-82
2021/11/24 03:42:57;;;;;;;12.15;6.07;;;0.80;90.60;;;;;;6192365;28;20085;-79
2021/11/24 03:45:59;;;;;;;13.95;5.15;;;0.80;90.60;;;;;;6200545;28;20492;-80
2021/11/24 03:49:00;;;;;;;16.25;6.18;;;0.90;90.60;;;;;;6199646;28;20070;-80
2021/11/24 03:52:05;;;;;;;13.27;5.78;;;0.80;90.60;;;;;;6201656;28;20039;-79
2021/11/24 03:55:09;;;;;;;14.75;5.35;;;0.80;90.70;;;;;;6199770;28;20062;-80
2021/11/24 03:58:10;;;;;;;10.85;5.80;;;0.80;90.70;;;;;;6200607;28;20031;-79
2021/11/24 04:01:13;;;;;;;14.98;6.13;;;0.80;90.70;;;;;;6200641;28;20086;-80
2021/11/24 04:04:15;;;;;;;13.00;4.97;;;0.80;90.80;;;;;;6199711;28;20088;-82
2021/11/24 04:07:18;;;;;;;9.18;4.18;;;0.80;90.80;;;;;;6200286;28;20054;-81
2021/11/24 04:10:20;;;;;;;10.27;4.35;;;0.80;90.80;;;;;;6200872;28;20074;-80
2021/11/24 04:13:22;;;;;;;11.82;5.43;;;0.80;90.80;;;;;;6200781;28;20087;-80
2021/11/24 04:16:24;;;;;;;8.80;5.32;;;0.90;90.80;;;;;;6200395;28;20050;-79
2021/11/24 04:19:26;;;;;;;9.35;4.45;;;0.90;90.80;;;;;;6199875;28;20097;-81
2021/11/24 04:22:29;;;;;;;13.20;4.57;;;0.80;90.70;;;;;;6200572;28;20054;-80
2021/11/24 04:25:30;;;;;;;8.90;5.30;;;0.80;90.80;;;;;;6199058;28;20082;-80
2021/11/24 04:28:32;;;;;;;7.70;4.53;;;0.80;90.90;;;;;;6212407;28;20046;-81
2021/11/24 04:31:34;;;;;;;11.25;4.82;;;0.70;90.90;;;;;;6223144;28;20084;-80
2021/11/24 04:34:36;;;;;;;7.97;3.58;;;0.80;90.90;;;;;;6224799;28;20114;-80
2021/11/24 04:37:39;;;;;;;7.57;3.55;;;0.70;90.90;;;;;;6222554;28;20074;-82
2021/11/24 04:40:41;;;;;;;13.55;6.35;;;0.70;91.00;;;;;;6214174;28;20074;-82
2021/11/24 04:43:45;;;;;;;10.18;4.30;;;0.70;91.00;;;;;;6213719;28;20120;-81
2021/11/24 04:46:47;;;;;;;8.50;4.55;;;0.70;91.10;;;;;;6213471;28;20082;-81
2021/11/24 04:49:49;;;;;;;6.00;4.47;;;0.70;91.10;;;;;;6213308;28;20570;-82
2021/11/24 04:52:52;;;;;;;7.68;5.22;;;0.80;91.00;;;;;;6213475;28;20705;-83
2021/11/24 04:55:54;;;;;;;11.35;5.97;;;0.70;91.00;;;;;;6209746;28;20100;-83
2021/11/24 04:58:57;;;;;;;8.27;5.18;;;0.80;90.90;;;;;;6211643;28;20054;-82
2021/11/24 05:01:59;;;;;;;10.52;4.07;;;0.80;90.90;;;;;;6212293;28;20587;-83
2021/11/24 05:05:01;;;;;;;8.93;4.95;;;0.80;90.90;;;;;;6216614;28;20110;-82
2021/11/24 05:08:05;;;;;;;22.10;4.18;;;0.70;91.00;;;;;;6212093;28;20129;-83
2021/11/24 05:11:07;;;;;;;9.45;4.85;;;0.80;91.00;;;;;;6218038;28;20050;-82
2021/11/24 05:14:14;;;;;;;14.30;5.07;;;0.80;90.90;;;;;;6223245;28;20047;-78
2021/11/24 05:17:19;;;;;;;16.83;6.13;;;0.80;90.90;;;;;;6222610;28;20050;-79
2021/11/24 05:20:24;;;;;;;8.75;5.57;;;0.90;90.80;;;;;;6222563;28;20389;-80
2021/11/24 05:23:29;;;;;;;8.82;4.47;;;0.90;90.80;;;;;;6221705;28;20054;-82
2021/11/24 05:26:34;;;;;;;12.98;5.20;;;1.00;90.60;;;;;;6223066;28;20038;-80
2021/11/24 05:29:36;;;;;;;19.65;6.13;;;1.10;90.50;;;;;;6216021;28;20042;-80
2021/11/24 05:32:38;;;;;;;22.75;6.63;;;1.10;90.50;;;;;;6220239;28;20081;-81
2021/11/24 05:35:40;;;;;;;12.50;5.82;;;1.10;90.40;;;;;;6204346;28;20051;-83
2021/11/24 05:38:43;;;;;;;10.15;5.25;;;1.20;90.40;;;;;;6185112;28;20074;-81
2021/11/24 05:41:45;;;;;;;12.90;6.53;;;1.20;90.40;;;;;;6184894;28;20061;-83
2021/11/24 05:44:49;;;;;;;10.05;6.15;;;1.20;90.40;;;;;;6184553;28;20051;-83
2021/11/24 05:47:54;;;;;;;11.10;6.32;;;1.20;90.40;;;;;;6184309;28;20055;-83
2021/11/24 05:50:56;;;;;;;15.25;6.65;;;1.20;90.40;;;;;;6184372;28;20119;-80
2021/11/24 05:53:59;;;;;;;10.18;5.13;;;1.20;90.40;;;;;;6189173;28;20070;-79
2021/11/24 05:57:01;;;;;;;11.27;6.93;;;1.20;90.50;;;;;;6196861;28;20070;-81
2021/11/24 06:00:04;;;;;;;10.35;5.97;;;1.20;90.50;;;;;;6184546;28;20091;-82
2021/11/24 06:03:06;;;;;;;11.63;5.80;;;1.30;90.70;;;;;;6182171;28;20512;-82
2021/11/24 06:06:07;;;;;;;10.75;6.80;;;1.30;90.60;;;;;;6182655;28;20074;-86
2021/11/24 06:09:11;;;;;;;10.02;6.53;;;1.20;90.60;;;;;;6182024;28;20042;-85
2021/11/24 06:12:12;;;;;;;12.90;6.75;;;1.30;90.60;;;;;;6182797;28;20240;-84
2021/11/24 06:15:16;;;;;;;13.57;6.95;;;1.30;90.50;;;;;;6185979;28;20050;-81
2021/11/24 06:18:19;;;;;;;16.85;7.40;;;1.30;90.50;;;;;;6186275;28;20078;-81
2021/11/24 06:21:22;;;;;;;15.30;6.95;;;1.40;90.40;;;;;;6187536;28;20125;-80
2021/11/24 06:24:25;;;;;;;17.50;6.97;;;1.50;90.30;;;;;;6185758;28;20053;-79
2021/11/24 06:27:27;;;;;;;17.25;8.63;;;1.40;90.20;;;;;;6189908;28;20147;-80
2021/11/24 06:30:29;;;;;;;14.13;7.80;;;1.40;90.20;;;;;;6198195;28;20077;-81
2021/11/24 06:33:31;;;;;;;14.77;6.68;;;1.40;90.20;;;;;;6208404;28;20129;-81
2021/11/24 06:36:33;;;;;;;15.10;7.50;;;1.40;90.20;;;;;;6209431;28;20120;-81
2021/11/24 06:39:36;;;;;;;17.25;7.68;;;1.40;90.30;;;;;;6209328;28;20634;-81
2021/11/24 06:42:38;;;;;;;11.80;6.93;;;1.30;90.30;;;;;;6209432;28;20047;-80
2021/11/24 06:45:41;;;;;;;15.93;8.20;;;1.20;90.30;;;;;;6209093;28;20056;-79
2021/11/24 06:48:43;;;;;;;15.07;8.02;;;1.20;90.40;;;;;;6208929;28;20129;-81
2021/11/24 06:51:45;;;;;;;11.07;6.03;;;1.20;90.40;;;;;;6210428;28;20129;-81
2021/11/24 06:54:48;;;;;;;12.57;6.68;;;1.20;90.40;;;;;;6209151;28;20140;-81
2021/11/24 06:57:50;;;;;;;14.38;7.43;;;1.10;90.40;;;;;;6208789;28;20435;-81
2021/11/24 07:00:52;;;;;;;15.93;7.45;;;1.20;90.50;;;;;;6207863;28;20125;-83
2021/11/24 07:03:54;;;;;;;20.40;8.43;;;1.10;90.50;;;;;;6206978;28;20057;-82
2021/11/24 07:06:55;;;;;;;15.45;7.75;;;1.10;90.60;;;;;;6208570;28;20088;-81
2021/11/24 07:10:02;;;;;;;17.73;8.38;;;1.00;90.80;;;;;;6208307;28;20465;-83
2021/11/24 07:13:04;;;;;;;18.58;8.60;;;0.90;90.80;;;;;;6213984;28;20050;-82
2021/11/24 07:16:06;;;;;;;21.52;10.05;;;0.80;90.90;;;;;;6207373;28;20100;-82
2021/11/24 07:19:08;;;;;;;26.75;9.80;;;0.80;91.10;;;;;;6207095;28;20054;-81
2021/11/24 07:22:10;;;;;;;20.70;9.13;;;0.80;91.30;;;;;;6207214;28;20112;-81
2021/11/24 07:25:14;;;;;;;15.73;7.93;;;0.80;91.30;;;;;;6207781;28;20072;-82
2021/11/24 07:28:15;;;;;;;20.60;8.77;;;0.90;91.50;;;;;;6208328;28;20050;-82
2021/11/24 07:31:17;;;;;;;25.25;9.90;;;0.80;91.40;;;;;;6204163;28;20097;-82
2021/11/24 07:34:19;;;;;;;17.85;8.38;;;0.90;91.60;;;;;;6211127;28;20054;-82
2021/11/24 07:37:21;;;;;;;24.98;10.93;;;1.00;91.50;;;;;;6207259;28;20532;-82
2021/11/24 07:40:24;;;;;;;27.77;11.40;;;1.00;91.60;;;;;;6206870;28;20085;-81
2021/11/24 07:43:26;;;;;;;23.80;9.38;;;1.20;91.60;;;;;;6206025;28;20080;-82
2021/11/24 07:46:28;;;;;;;24.98;10.57;;;1.20;91.60;;;;;;6206100;28;20058;-82
2021/11/24 07:49:30;;;;;;;28.67;10.70;;;1.30;91.50;;;;;;6204595;28;20113;-82
2021/11/24 07:52:32;;;;;;;28.20;11.52;;;1.30;91.60;;;;;;6205899;28;20090;-82
2021/11/24 07:55:35;;;;;;;26.52;12.02;;;1.30;91.70;;;;;;6205045;28;20061;-82
2021/11/24 07:58:40;;;;;;;26.33;10.60;;;1.40;91.80;;;;;;6205449;28;20046;-81
2021/11/24 08:01:42;;;;;;;25.35;10.68;;;1.60;91.90;;;;;;6203925;28;20064;-82
2021/11/24 08:04:44;;;;;;;28.75;13.55;;;1.70;91.70;;;;;;6183642;28;20464;-81
2021/11/24 08:07:46;;;;;;;31.83;12.98;;;1.90;91.50;;;;;;6193210;28;20093;-80
2021/11/24 08:10:49;;;;;;;18.95;9.35;;;2.00;91.30;;;;;;6190443;28;20125;-80
2021/11/24 08:13:51;;;;;;;23.15;10.57;;;2.20;91.00;;;;;;6191056;28;20136;-80
2021/11/24 08:16:53;;;;;;;20.33;8.73;;;2.50;90.60;;;;;;6208691;28;20118;-80
2021/11/24 08:19:55;;;;;;;24.77;10.43;;;2.60;90.20;;;;;;6208881;28;20067;-80
2021/11/24 08:22:56;;;;;;;22.17;10.27;;;2.80;90.00;;;;;;6205855;28;20058;-80
2021/11/24 08:26:00;;;;;;;18.35;9.15;;;3.00;88.90;;;;;;6208285;28;20050;-79
2021/11/24 08:29:01;;;;;;;17.05;9.00;;;3.10;87.90;;;;;;6208514;28;20046;-81
2021/11/24 08:32:04;;;;;;;19.75;7.65;;;3.20;87.30;;;;;;6194257;28;20130;-80
2021/11/24 08:35:06;;;;;;;17.27;9.55;;;3.50;86.90;;;;;;6191918;28;20512;-80
2021/11/24 08:38:10;;;;;;;15.75;7.60;;;3.70;85.40;;;;;;6211838;28;20106;-80
2021/11/24 08:41:15;;;;;;;17.52;7.93;;;3.90;84.70;;;;;;6196514;28;20042;-82
2021/11/24 08:44:17;;;;;;;16.58;7.35;;;4.10;83.60;;;;;;6205157;28;20061;-79
2021/11/24 08:47:20;;;;;;;16.52;8.25;;;4.30;82.50;;;;;;6203966;28;20081;-80
2021/11/24 08:50:22;;;;;;;12.32;7.32;;;4.40;81.30;;;;;;6204484;28;20057;-80
2021/11/24 08:53:29;;;;;;;15.05;7.82;;;4.60;80.80;;;;;;6202269;28;20050;-80
2021/11/24 08:56:34;;;;;;;10.18;4.97;;;4.80;80.20;;;;;;6203100;28;20137;-82
2021/11/24 08:59:36;;;;;;;17.55;7.07;;;5.10;79.30;;;;;;6205130;28;20074;-83
2021/11/24 09:02:38;;;;;;;18.73;7.00;;;5.20;78.10;;;;;;6204774;28;20121;-81
2021/11/24 09:05:41;;;;;;;17.45;7.55;;;5.20;77.60;;;;;;6228874;23;20146;-83
2021/11/24 09:08:43;;;;;;;10.68;5.25;;;5.20;77.40;;;;;;6240407;28;20149;-79
2021/11/24 09:11:46;;;;;;;11.75;6.20;;;5.30;77.10;;;;;;6219234;28;20587;-81
2021/11/24 09:14:48;;;;;;;15.15;6.65;;;5.50;77.00;;;;;;6228437;28;20136;-79
2021/11/24 09:17:49;;;;;;;17.45;8.43;;;5.70;76.40;;;;;;6211322;28;20050;-80
2021/11/24 09:20:51;;;;;;;12.40;6.35;;;5.90;76.30;;;;;;6203878;28;20125;-80
2021/11/24 09:23:57;;;;;;;14.05;6.88;;;6.20;74.80;;;;;;6204433;28;20126;-80
2021/11/24 09:27:03;;;;;;;15.80;8.10;;;6.30;74.70;;;;;;6205686;28;20093;-79
2021/11/24 09:30:05;;;;;;;11.45;6.35;;;6.60;73.90;;;;;;6202885;28;20413;-80
2021/11/24 09:33:08;;;;;;;17.63;8.30;;;6.90;73.60;;;;;;6205603;28;20559;-81
2021/11/24 09:36:10;;;;;;;15.13;7.50;;;7.30;72.00;;;;;;6225880;28;20042;-79
2021/11/24 09:39:13;;;;;;;11.82;5.25;;;7.50;70.50;;;;;;6223164;28;20057;-79
2021/11/24 09:42:17;;;;;;;12.23;5.93;;;7.30;69.40;;;;;;6222986;28;20053;-80
2021/11/24 09:45:19;;;;;;;12.70;5.97;;;7.20;70.30;;;;;;6227282;28;20176;-82
2021/11/24 09:48:21;;;;;;;14.88;7.07;;;7.10;69.90;;;;;;6229044;28;20054;-81
2021/11/24 09:51:24;;;;;;;11.70;6.25;;;7.00;70.40;;;;;;6231645;28;20056;-79
2021/11/24 09:54:26;;;;;;;13.60;7.55;;;7.10;70.50;;;;;;6232224;28;20116;-81
2021/11/24 09:57:30;;;;;;;16.23;7.65;;;7.30;70.10;;;;;;6231606;28;20124;-80
2021/11/24 10:00:33;;;;;;;12.63;6.85;;;7.30;69.20;;;;;;6231091;28;20415;-81
2021/11/24 10:03:35;;;;;;;11.45;6.15;;;7.50;69.90;;;;;;6231553;28;20184;-81
2021/11/24 10:06:39;;;;;;;16.35;5.57;;;7.50;68.80;;;;;;6208313;28;20052;-81
2021/11/24 10:09:42;;;;;;;10.02;6.53;;;7.60;68.90;;;;;;6222518;28;20053;-81
2021/11/24 10:12:45;;;;;;;14.77;7.78;;;7.60;68.70;;;;;;6230573;28;20101;-81
2021/11/24 10:15:49;;;;;;;13.25;5.75;;;7.70;67.20;;;;;;6230959;28;20069;-81
2021/11/24 10:19:00;;;;;;;22.52;9.32;;;7.60;68.10;;;;;;6230662;28;20050;-81
2021/11/24 10:22:06;;;;;;;12.63;7.53;;;7.50;68.20;;;;;;6231297;28;20057;-79
2021/11/24 10:25:10;;;;;;;12.40;7.68;;;7.40;67.90;;;;;;6206356;28;20106;-80
2021/11/24 10:28:26;;;;;;;13.25;7.40;;;7.50;68.30;;;;;;6206327;28;20177;-80
2021/11/24 10:31:34;;;;;;;12.98;6.80;;;7.40;67.20;;;;;;6206691;28;20053;-81
2021/11/24 10:34:39;;;;;;;15.00;7.93;;;7.40;67.90;;;;;;6207011;28;20073;-81
2021/11/24 10:37:40;;;;;;;13.50;7.10;;;7.80;68.40;;;;;;6213501;28;20048;-81
2021/11/24 10:40:43;;;;;;;16.63;6.95;;;8.40;66.10;;;;;;6222182;28;20053;-80
2021/11/24 10:43:47;;;;;;;12.00;6.28;;;8.20;65.20;;;;;;6231280;28;20081;-81
2021/11/24 10:46:53;;;;;;;10.93;6.13;;;8.30;65.80;;;;;;6230479;28;20085;-80
2021/11/24 10:49:57;;;;;;;16.52;8.57;;;8.40;65.10;;;;;;6230396;28;20061;-81
2021/11/24 10:52:59;;;;;;;12.02;6.72;;;8.10;65.10;;;;;;6232152;28;20045;-80
2021/11/24 10:56:06;;;;;;;18.17;8.75;;;8.20;65.40;;;;;;6233026;28;20050;-80
2021/11/24 10:59:19;;;;;;;16.10;9.13;;;8.20;65.30;;;;;;6234497;28;20056;-80
2021/11/24 11:02:24;;;;;;;11.88;6.07;;;8.40;65.20;;;;;;6236426;28;20192;-81
2021/11/24 11:05:27;;;;;;;12.05;7.15;;;8.50;64.00;;;;;;6232394;28;20056;-81
2021/11/24 11:08:29;;;;;;;12.90;6.85;;;8.30;64.60;;;;;;6236415;28;20046;-80
2021/11/24 11:11:33;;;;;;;12.18;6.88;;;8.20;64.30;;;;;;6227696;28;20046;-82
2021/11/24 11:14:36;;;;;;;14.90;8.18;;;8.10;65.80;;;;;;6229138;28;20072;-81
2021/11/24 11:17:49;;;;;;;16.05;7.93;;;8.20;66.30;;;;;;6237219;28;20073;-81
2021/11/24 11:20:52;;;;;;;13.35;7.18;;;8.90;66.10;;;;;;6238544;28;20042;-81
2021/11/24 11:24:06;;;;;;;17.15;7.38;;;9.40;62.80;;;;;;6239122;28;20096;-81
2021/11/24 11:27:08;;;;;;;15.98;9.15;;;9.30;62.10;;;;;;6235500;28;20109;-81
2021/11/24 11:30:12;;;;;;;15.68;8.45;;;8.90;61.90;;;;;;6236772;28;20134;-80
2021/11/24 11:33:16;;;;;;;12.98;7.80;;;8.70;63.20;;;;;;6237152;28;20592;-82
2021/11/24 11:36:18;;;;;;;15.80;7.82;;;8.60;63.20;;;;;;6234275;28;20049;-80
2021/11/24 11:39:20;;;;;;;15.18;8.10;;;8.70;63.70;;;;;;6233172;28;20463;-81
2021/11/24 11:42:24;;;;;;;14.98;8.02;;;8.70;63.40;;;;;;6225459;28;20419;-81
2021/11/24 11:45:31;;;;;;;12.75;7.75;;;8.90;62.90;;;;;;6235725;28;20066;-80
2021/11/24 11:48:34;;;;;;;14.90;7.65;;;9.00;62.10;;;;;;6236321;28;20068;-84
2021/11/24 11:51:38;;;;;;;17.98;7.90;;;9.00;62.10;;;;;;6235922;28;20062;-82
2021/11/24 11:54:40;;;;;;;14.13;7.90;;;8.80;62.90;;;;;;6238727;28;20092;-80
2021/11/24 11:57:44;;;;;;;11.35;6.45;;;9.10;62.40;;;;;;6237091;28;20042;-81
2021/11/24 12:01:06;;;;;;;13.60;8.52;;;8.80;61.90;;;;;;6233488;28;20124;-80
2021/11/24 12:04:13;;;;;;;13.45;7.32;;;8.40;63.00;;;;;;6236764;28;20045;-81
2021/11/24 12:07:19;;;;;;;14.45;7.15;;;8.40;63.00;;;;;;6238071;28;20088;-81
2021/11/24 12:10:38;;;;;;;12.60;7.40;;;8.00;63.30;;;;;;6228607;28;20057;-81
2021/11/24 12:13:40;;;;;;;11.52;5.78;;;8.20;64.10;;;;;;6235498;28;20196;-81
2021/11/24 12:16:43;;;;;;;14.48;7.93;;;8.10;63.80;;;;;;6230574;28;20066;-79
2021/11/24 12:19:45;;;;;;;14.60;7.35;;;8.00;64.30;;;;;;6234340;28;20057;-80
2021/11/24 12:22:56;;;;;;;11.68;7.47;;;8.10;64.70;;;;;;6233276;28;20137;-79
2021/11/24 12:25:59;;;;;;;9.40;6.65;;;8.30;64.60;;;;;;6236942;28;20071;-81
2021/11/24 12:29:01;;;;;;;14.30;8.00;;;8.30;63.70;;;;;;6234725;28;20066;-80
2021/11/24 12:32:04;;;;;;;11.27;6.97;;;8.20;64.10;;;;;;6237548;28;20069;-82
2021/11/24 12:35:17;;;;;;;15.90;8.60;;;8.20;64.00;;;;;;6239456;28;20077;-81
2021/11/24 12:38:21;;;;;;;12.43;7.22;;;8.40;64.50;;;;;;6234748;28;20057;-81
2021/11/24 12:41:25;;;;;;;16.30;7.15;;;8.40;64.00;;;;;;6221717;28;20046;-81
2021/11/24 12:44:27;;;;;;;13.85;7.53;;;8.40;63.70;;;;;;6214493;28;20089;-81
2021/11/24 12:47:30;;;;;;;13.32;7.72;;;8.30;63.10;;;;;;6212446;28;20133;-81
2021/11/24 12:50:32;;;;;;;17.90;8.02;;;8.20;63.00;;;;;;6207787;28;20070;-81
2021/11/24 12:53:37;;;;;;;15.00;7.00;;;8.20;63.80;;;;;;6210559;28;20038;-82
2021/11/24 12:56:41;;;;;;;13.07;6.50;;;8.40;63.80;;;;;;6209973;28;20054;-82
2021/11/24 12:59:43;;;;;;;9.57;5.38;;;8.50;62.30;;;;;;6210489;28;20060;-81
2021/11/24 13:02:51;;;;;;;12.63;6.82;;;8.50;62.10;;;;;;6208638;28;20112;-80
2021/11/24 13:05:56;;;;;;;11.60;6.93;;;8.40;62.50;;;;;;6209993;28;20114;-80
2021/11/24 13:09:07;;;;;;;13.65;7.57;;;8.40;62.10;;;;;;6219575;28;20053;-81
2021/11/24 13:12:11;;;;;;;11.20;6.95;;;8.30;62.40;;;;;;6212540;28;20046;-81
2021/11/24 13:15:13;;;;;;;11.02;6.68;;;8.30;63.00;;;;;;6210562;28;20089;-79
2021/11/24 13:18:22;;;;;;;11.57;6.10;;;8.40;62.90;;;;;;6219721;28;20103;-79
2021/11/24 13:21:24;;;;;;;10.57;5.90;;;8.60;63.00;;;;;;6230468;28;20054;-82
2021/11/24 13:24:28;;;;;;;9.27;5.63;;;8.50;61.80;;;;;;6240579;28;20129;-80
2021/11/24 13:27:38;;;;;;;12.65;6.57;;;8.30;62.40;;;;;;6240452;28;20578;-81
2021/11/24 13:30:43;;;;;;;7.70;5.07;;;8.40;62.80;;;;;;6238659;28;20104;-81
2021/11/24 13:33:46;;;;;;;10.35;6.43;;;8.40;62.80;;;;;;6240925;28;20127;-80
2021/11/24 13:36:48;;;;;;;8.63;5.05;;;8.30;62.30;;;;;;6237023;28;20133;-82
2021/11/24 13:39:53;;;;;;;9.88;5.18;;;8.20;62.80;;;;;;6233264;28;20137;-82
2021/11/24 13:42:55;;;;;;;9.55;5.63;;;8.00;63.00;;;;;;6214138;28;20125;-81
2021/11/24 13:45:57;;;;;;;10.50;5.53;;;7.90;63.70;;;;;;6213469;28;20181;-80
2021/11/24 13:49:07;;;;;;;13.25;7.22;;;8.10;63.90;;;;;;6212866;28;20129;-82
2021/11/24 13:52:12;;;;;;;13.57;6.05;;;8.20;63.50;;;;;;6214188;28;20059;-81
2021/11/24 13:55:18;;;;;;;9.65;6.15;;;8.10;63.00;;;;;;6214266;28;20124;-84
2021/11/24 13:58:23;;;;;;;10.38;6.10;;;8.00;63.50;;;;;;6215423;28;20054;-80
2021/11/24 14:01:29;;;;;;;10.55;5.50;;;7.90;63.30;;;;;;6212653;28;20121;-81
2021/11/24 14:04:34;;;;;;;11.48;5.97;;;7.90;63.90;;;;;;6215596;28;20054;-82
2021/11/24 14:07:38;;;;;;;10.70;6.03;;;7.90;63.90;;;;;;6225584;28;20050;-81
2021/11/24 14:10:39;;;;;;;13.65;6.57;;;7.90;63.30;;;;;;6222858;28;20076;-83
2021/11/24 14:13:43;;;;;;;10.60;5.35;;;8.00;63.90;;;;;;6217219;28;20132;-83
2021/11/24 14:16:55;;;;;;;14.15;7.47;;;8.00;63.70;;;;;;6229131;28;20049;-83
2021/11/24 14:20:01;;;;;;;10.02;5.85;;;8.10;64.10;;;;;;6238542;28;20153;-82
2021/11/24 14:23:05;;;;;;;11.57;6.30;;;8.10;63.70;;;;;;6242024;28;20070;-84
2021/11/24 14:26:07;;;;;;;12.10;6.43;;;8.30;63.50;;;;;;6249890;28;20515;-85
2021/11/24 14:29:08;;;;;;;10.77;6.68;;;8.40;63.70;;;;;;6245155;28;20049;-84
2021/11/24 14:32:10;;;;;;;10.20;6.18;;;8.50;63.10;;;;;;6238077;28;20128;-84
2021/11/24 14:35:15;;;;;;;12.15;7.13;;;8.50;62.90;;;;;;6222070;28;20049;-83
2021/11/24 14:38:17;;;;;;;9.32;5.63;;;8.60;62.50;;;;;;6234284;28;20095;-83
2021/11/24 14:41:19;;;;;;;12.13;6.50;;;8.60;61.80;;;;;;6232850;28;20061;-83
2021/11/24 14:44:24;;;;;;;13.18;6.75;;;8.50;62.00;;;;;;6241065;28;20077;-84
2021/11/24 14:47:27;;;;;;;11.13;6.25;;;8.30;62.30;;;;;;6240306;28;20053;-83
2021/11/24 14:50:30;;;;;;;13.05;6.85;;;8.30;62.60;;;;;;6241186;28;20049;-82
2021/11/24 14:53:33;;;;;;;13.82;6.20;;;8.30;62.90;;;;;;6239624;28;20439;-82
2021/11/24 14:56:35;;;;;;;11.50;6.47;;;8.30;62.80;;;;;;6243576;28;20081;-83
2021/11/24 14:59:37;;;;;;;12.90;7.07;;;8.20;62.70;;;;;;6244962;28;20056;-84
2021/11/24 15:02:38;;;;;;;12.13;6.07;;;8.00;63.30;;;;;;6244925;28;20450;-83
2021/11/24 15:05:42;;;;;;;13.93;8.32;;;7.80;63.80;;;;;;6241399;28;20096;-82
2021/11/24 15:08:44;;;;;;;15.48;7.32;;;7.60;64.40;;;;;;6231837;23;20051;-79
2021/11/24 15:11:45;;;;;;;16.45;8.15;;;7.40;65.10;;;;;;6205057;28;20125;-79
2021/11/24 15:14:47;;;;;;;13.30;6.70;;;7.20;65.60;;;;;;6204003;28;20119;-80
2021/11/24 15:17:49;;;;;;;13.77;7.75;;;7.10;66.40;;;;;;6204132;28;20065;-80
2021/11/24 15:20:52;;;;;;;16.98;8.35;;;6.90;66.90;;;;;;6201248;28;20074;-81
2021/11/24 15:23:54;;;;;;;20.75;8.43;;;6.70;67.70;;;;;;6206035;28;20463;-81
2021/11/24 15:26:56;;;;;;;15.55;8.30;;;6.60;68.00;;;;;;6205892;28;20134;-80
2021/11/24 15:29:58;;;;;;;13.55;7.10;;;6.40;68.40;;;;;;6205857;28;20137;-80
2021/11/24 15:33:00;;;;;;;14.18;7.60;;;6.20;69.10;;;;;;6205645;28;20543;-79
2021/11/24 15:36:04;;;;;;;15.68;7.50;;;6.10;69.50;;;;;;6205235;28;20046;-80
2021/11/24 15:39:07;;;;;;;11.57;6.78;;;5.90;69.40;;;;;;6194697;28;20113;-80
2021/11/24 15:42:09;;;;;;;18.85;7.53;;;5.80;69.40;;;;;;6198206;28;20050;-79
2021/11/24 15:45:11;;;;;;;19.67;7.68;;;5.80;69.90;;;;;;6195185;28;20133;-80
2021/11/24 15:48:13;;;;;;;14.85;7.65;;;5.70;70.00;;;;;;6193191;28;20149;-80
2021/11/24 15:51:16;;;;;;;19.95;7.35;;;5.60;70.10;;;;;;6197107;28;20047;-81
2021/11/24 15:54:18;;;;;;;18.42;7.88;;;5.60;70.30;;;;;;6182097;28;20043;-81